Time;durP1;ratioP1;P1;durP2;ratioP2;P2;SDS_P1;SDS_P2;PMS_P1;PMS_P2;Temp;Humidity;BMP_temperature;BMP_pressure;BME280_temperature;BME280_humidity;BME280_pressure;Samples;Min_cycle;Max_cycle;Signal;HPM_P1;HPM_P2
2022/12/10 00:01:17;;;;;;;24.52;11.98;;;-0.20;99.90;;;;;;5135267;27;20166;-66
2022/12/10 00:03:44;;;;;;;28.38;13.93;;;0.30;99.90;;;;;;5134988;27;20050;-66
2022/12/10 00:06:16;;;;;;;24.10;13.43;;;0.60;99.90;;;;;;5134244;27;20570;-67
2022/12/10 00:08:42;;;;;;;25.27;13.50;;;-0.10;99.90;;;;;;5134820;27;20368;-66
2022/12/10 00:11:10;;;;;;;25.67;13.13;;;-0.30;99.90;;;;;;5134558;27;20095;-66
2022/12/10 00:13:37;;;;;;;24.23;12.88;;;-0.50;99.90;;;;;;5134738;27;20509;-66
2022/12/10 00:16:04;;;;;;;25.58;14.00;;;-0.50;99.90;;;;;;5134399;27;20050;-66
2022/12/10 00:18:31;;;;;;;25.55;12.90;;;-0.40;99.90;;;;;;5134477;27;20057;-66
2022/12/10 00:20:56;;;;;;;27.45;13.45;;;-0.70;99.90;;;;;;5134503;28;20035;-66
2022/12/10 00:23:22;;;;;;;27.35;13.80;;;0.10;99.90;;;;;;5099301;28;20051;-66
2022/12/10 00:25:48;;;;;;;26.42;13.48;;;0.10;99.90;;;;;;5099287;28;20091;-66
2022/12/10 00:28:13;;;;;;;26.02;12.82;;;-0.50;99.90;;;;;;5134425;28;20046;-66
2022/12/10 00:30:39;;;;;;;24.30;13.70;;;-0.30;99.90;;;;;;5150329;27;20108;-66
2022/12/10 00:33:05;;;;;;;26.70;14.18;;;-0.40;99.90;;;;;;5134337;28;20078;-66
2022/12/10 00:35:30;;;;;;;27.35;13.65;;;0.00;99.90;;;;;;5134324;28;20088;-66
2022/12/10 00:37:56;;;;;;;25.98;13.00;;;-0.30;99.90;;;;;;5134272;28;20126;-66
2022/12/10 00:40:23;;;;;;;28.33;14.65;;;-0.10;99.90;;;;;;5134244;28;20047;-66
2022/12/10 00:42:48;;;;;;;23.13;12.13;;;0.20;99.90;;;;;;5115941;28;20044;-66
2022/12/10 00:45:14;;;;;;;24.77;12.68;;;-0.10;99.90;;;;;;5134074;28;20077;-66
2022/12/10 00:47:39;;;;;;;26.75;13.75;;;-0.50;99.90;;;;;;5134209;28;20103;-66
2022/12/10 00:50:05;;;;;;;27.92;14.00;;;-0.10;99.90;;;;;;5134182;28;20043;-66
2022/12/10 00:52:31;;;;;;;23.88;13.30;;;0.10;99.90;;;;;;5134813;27;20081;-66
2022/12/10 00:54:57;;;;;;;26.45;13.40;;;0.50;99.90;;;;;;5138283;27;20043;-66
2022/12/10 00:57:23;;;;;;;26.95;13.73;;;0.50;99.90;;;;;;5137868;27;20100;-66
2022/12/10 00:59:48;;;;;;;26.30;13.35;;;0.90;99.90;;;;;;5107459;28;20052;-66
2022/12/10 01:02:14;;;;;;;28.75;14.02;;;0.30;99.90;;;;;;5097045;28;20134;-65
2022/12/10 01:04:40;;;;;;;23.75;13.05;;;-0.10;99.90;;;;;;5097412;28;20052;-66
2022/12/10 01:07:06;;;;;;;24.05;13.55;;;-0.10;99.90;;;;;;5097235;28;20076;-65
2022/12/10 01:09:32;;;;;;;25.65;13.45;;;0.30;99.90;;;;;;5096927;28;20109;-65
2022/12/10 01:12:01;;;;;;;28.25;14.80;;;-0.20;99.90;;;;;;5097751;28;20044;-65
2022/12/10 01:14:30;;;;;;;27.13;14.07;;;-0.10;99.90;;;;;;5097170;28;20117;-65
2022/12/10 01:16:59;;;;;;;26.83;13.40;;;-0.30;99.90;;;;;;5096754;28;20040;-65
2022/12/10 01:19:25;;;;;;;27.83;13.82;;;0.10;99.90;;;;;;5096722;28;20079;-65
2022/12/10 01:21:52;;;;;;;27.35;13.80;;;0.00;99.90;;;;;;5096635;28;20135;-65
2022/12/10 01:24:19;;;;;;;27.98;13.77;;;0.00;99.90;;;;;;5095750;28;20123;-65
2022/12/10 01:26:45;;;;;;;28.60;14.00;;;0.20;99.90;;;;;;5096564;28;20040;-65
2022/12/10 01:29:14;;;;;;;27.83;14.57;;;0.00;99.90;;;;;;5096568;28;20051;-65
2022/12/10 01:31:40;;;;;;;28.23;14.25;;;0.20;99.90;;;;;;5096548;28;20499;-65
2022/12/10 01:34:09;;;;;;;26.58;13.57;;;0.90;99.90;;;;;;5097043;28;20048;-66
2022/12/10 01:36:39;;;;;;;25.95;13.57;;;0.10;99.90;;;;;;5096814;28;20083;-66
2022/12/10 01:39:07;;;;;;;29.35;14.45;;;0.10;99.90;;;;;;5078853;28;20515;-66
2022/12/10 01:41:38;;;;;;;23.25;13.18;;;1.10;99.90;;;;;;5095933;28;20418;-66
2022/12/10 01:44:07;;;;;;;27.30;14.20;;;0.00;99.90;;;;;;5096930;28;20044;-66
2022/12/10 01:46:41;;;;;;;28.95;14.00;;;0.50;99.90;;;;;;5096651;28;20044;-66
2022/12/10 01:49:10;;;;;;;28.48;15.00;;;0.00;99.90;;;;;;5096246;28;20036;-66
2022/12/10 01:51:38;;;;;;;27.65;13.90;;;0.00;99.90;;;;;;5094971;28;20044;-66
2022/12/10 01:54:07;;;;;;;27.17;14.73;;;0.10;99.90;;;;;;5096117;28;20081;-66
2022/12/10 01:56:37;;;;;;;26.80;14.82;;;-0.20;99.90;;;;;;5096865;28;20044;-66
2022/12/10 01:59:03;;;;;;;26.42;14.23;;;0.00;99.90;;;;;;5099571;27;20510;-66
2022/12/10 02:01:31;;;;;;;29.02;14.35;;;-0.40;99.90;;;;;;5137237;27;20043;-66
2022/12/10 02:03:57;;;;;;;31.42;14.27;;;-0.30;99.90;;;;;;5135785;27;20043;-66
2022/12/10 02:06:26;;;;;;;27.85;14.77;;;-0.40;99.90;;;;;;5136520;27;20532;-66
2022/12/10 02:09:18;;;;;;;26.30;13.52;;;0.70;99.90;;;;;;5136753;27;20422;-66
2022/12/10 02:11:59;;;;;;;28.48;14.20;;;0.20;99.90;;;;;;5136747;27;20130;-66
2022/12/10 02:14:41;;;;;;;31.05;14.07;;;-0.30;99.90;;;;;;5137532;27;20047;-66
2022/12/10 02:17:18;;;;;;;29.67;14.95;;;-0.20;99.90;;;;;;5136324;27;20058;-66
2022/12/10 02:20:05;;;;;;;32.38;15.10;;;-0.20;99.90;;;;;;5118991;27;20055;-66
2022/12/10 02:22:36;;;;;;;30.40;15.15;;;-0.50;99.90;;;;;;5136824;27;20508;-67
2022/12/10 02:25:05;;;;;;;30.38;15.18;;;-0.60;99.90;;;;;;5118690;27;20134;-66
2022/12/10 02:27:35;;;;;;;30.70;15.95;;;-0.50;99.90;;;;;;5136282;27;20083;-66
2022/12/10 02:30:02;;;;;;;30.85;15.50;;;0.00;99.90;;;;;;5136341;27;20047;-67
2022/12/10 02:32:38;;;;;;;31.00;16.02;;;-0.10;99.90;;;;;;5136885;27;20043;-67
2022/12/10 02:35:11;;;;;;;31.60;15.10;;;-0.50;99.90;;;;;;5101634;27;20135;-67
2022/12/10 02:37:50;;;;;;;30.30;16.02;;;-0.40;99.90;;;;;;5137030;27;20378;-67
2022/12/10 02:40:22;;;;;;;31.05;16.27;;;-0.50;99.90;;;;;;5118461;27;20050;-67
2022/12/10 02:42:50;;;;;;;32.33;15.35;;;-0.60;99.90;;;;;;5136973;27;20058;-67
2022/12/10 02:45:19;;;;;;;31.45;15.75;;;-0.60;99.90;;;;;;5135574;27;20083;-67
2022/12/10 02:47:46;;;;;;;30.48;14.85;;;-0.40;99.90;;;;;;5117886;27;20399;-67
2022/12/10 02:50:15;;;;;;;30.63;15.88;;;-0.40;99.90;;;;;;5136122;27;20058;-67
2022/12/10 02:52:41;;;;;;;32.38;15.13;;;-0.40;99.90;;;;;;5100912;27;20402;-67
2022/12/10 02:55:12;;;;;;;31.05;15.48;;;-0.20;99.90;;;;;;5118763;27;20393;-67
2022/12/10 02:57:59;;;;;;;35.95;16.85;;;-0.30;99.90;;;;;;5136386;27;20438;-67
2022/12/10 03:00:25;;;;;;;34.45;15.63;;;-0.60;99.90;;;;;;5100140;28;20596;-67
2022/12/10 03:03:30;;;;;;;34.30;16.52;;;-0.60;99.90;;;;;;5093931;28;20052;-67
2022/12/10 03:06:24;;;;;;;33.45;17.45;;;-0.60;99.90;;;;;;5084285;28;20048;-67
2022/12/10 03:09:00;;;;;;;;;;;-0.70;99.90;;;;;;5095191;28;20131;-67
2022/12/10 03:11:27;;;;;;;33.40;16.65;;;-0.70;99.90;;;;;;5094327;28;20383;-66
2022/12/10 03:14:05;;;;;;;36.78;17.83;;;-0.50;99.90;;;;;;5094586;28;20071;-66
2022/12/10 03:16:38;;;;;;;33.30;15.35;;;-0.60;99.90;;;;;;5094949;28;20434;-67
2022/12/10 03:19:10;;;;;;;32.22;16.00;;;0.30;99.90;;;;;;5095080;28;20116;-66
2022/12/10 03:21:38;;;;;;;39.95;17.58;;;-0.70;99.90;;;;;;5095276;28;20089;-67
2022/12/10 03:24:05;;;;;;;35.10;16.75;;;-0.20;99.90;;;;;;5094079;28;20514;-66
2022/12/10 03:26:32;;;;;;;32.85;16.05;;;-0.60;99.90;;;;;;5076262;28;20055;-67
2022/12/10 03:29:05;;;;;;;34.75;16.30;;;-0.50;99.90;;;;;;5094860;28;20052;-67
2022/12/10 03:31:32;;;;;;;39.72;19.10;;;-0.80;99.90;;;;;;5095157;28;20082;-67
2022/12/10 03:33:58;;;;;;;36.63;16.92;;;1.20;99.90;;;;;;5076913;28;20044;-66
2022/12/10 03:36:26;;;;;;;35.40;17.42;;;-0.20;99.90;;;;;;5094423;28;20040;-67
2022/12/10 03:38:52;;;;;;;35.90;16.33;;;-0.50;99.90;;;;;;5094109;28;20040;-67
2022/12/10 03:41:18;;;;;;;34.40;17.38;;;-0.20;99.90;;;;;;5076623;28;20499;-66
2022/12/10 03:43:58;;;;;;;34.22;17.50;;;-0.30;99.90;;;;;;5076968;28;20090;-66
2022/12/10 03:46:26;;;;;;;32.92;16.55;;;-0.30;99.90;;;;;;5093064;28;20036;-66
2022/12/10 03:48:53;;;;;;;33.22;16.17;;;-0.40;99.90;;;;;;5093001;28;20476;-66
2022/12/10 03:51:19;;;;;;;36.63;18.00;;;-0.50;99.90;;;;;;5093972;28;20078;-66
2022/12/10 03:53:45;;;;;;;39.17;17.25;;;0.70;99.90;;;;;;5092659;28;20044;-66
2022/12/10 03:56:11;;;;;;;31.92;15.85;;;-0.20;99.90;;;;;;5093883;28;20055;-66
2022/12/10 03:58:36;;;;;;;38.40;18.23;;;0.70;99.90;;;;;;5093852;28;20515;-66
2022/12/10 04:01:03;;;;;;;35.25;16.52;;;0.30;99.90;;;;;;5132230;27;20055;-66
2022/12/10 04:03:29;;;;;;;36.83;17.63;;;-0.10;99.90;;;;;;5117141;27;20139;-66
2022/12/10 04:06:01;;;;;;;36.42;16.95;;;0.50;99.90;;;;;;5135161;27;20078;-66
2022/12/10 04:08:27;;;;;;;38.47;17.98;;;-0.20;99.90;;;;;;5135174;27;20051;-66
2022/12/10 04:10:52;;;;;;;38.95;17.25;;;-0.30;99.90;;;;;;5134887;27;20503;-66
2022/12/10 04:18:46;;;;;;;38.47;18.50;;;-0.10;99.90;;;;;;5134517;27;20497;-66
2022/12/10 04:26:53;;;;;;;33.83;16.77;;;-0.40;99.90;;;;;;5134365;27;20060;-66
2022/12/10 04:29:20;;;;;;;32.28;16.60;;;0.30;99.90;;;;;;5121111;27;20426;-66
2022/12/10 04:31:46;;;;;;;37.03;17.80;;;-0.40;99.90;;;;;;5138699;27;20039;-67
2022/12/10 04:34:11;;;;;;;37.88;17.48;;;-0.40;99.90;;;;;;5138604;27;20050;-67
2022/12/10 04:36:37;;;;;;;35.75;18.08;;;0.50;99.90;;;;;;5103281;27;20047;-66
2022/12/10 04:39:03;;;;;;;41.25;18.17;;;-0.20;99.90;;;;;;5138529;27;20043;-67
2022/12/10 04:41:29;;;;;;;36.05;18.55;;;-0.30;99.90;;;;;;5138450;27;20086;-67
2022/12/10 04:43:55;;;;;;;34.90;18.02;;;-0.10;99.90;;;;;;5120758;27;20454;-66
2022/12/10 04:46:21;;;;;;;37.20;18.35;;;-0.10;99.90;;;;;;5120121;27;20051;-66
2022/12/10 04:48:47;;;;;;;38.47;19.13;;;-0.10;99.90;;;;;;5155172;27;20467;-67
2022/12/10 04:51:13;;;;;;;36.50;18.25;;;-0.40;99.90;;;;;;5120260;27;20043;-67
2022/12/10 04:53:39;;;;;;;37.25;19.05;;;0.00;99.90;;;;;;5103276;27;20057;-66
2022/12/10 04:56:05;;;;;;;35.25;18.60;;;-0.20;99.90;;;;;;5103157;27;20134;-66
2022/12/10 04:58:33;;;;;;;39.53;18.48;;;-0.40;99.90;;;;;;5120212;27;20047;-67
2022/12/10 05:01:11;;;;;;;35.95;18.70;;;-0.40;99.90;;;;;;5119555;27;20062;-66
2022/12/10 05:03:37;;;;;;;36.97;18.33;;;-0.30;99.90;;;;;;5103581;27;20043;-66
2022/12/10 05:06:11;;;;;;;35.38;17.65;;;-0.40;99.90;;;;;;5154113;27;20039;-66
2022/12/10 05:08:38;;;;;;;38.03;18.77;;;-0.10;99.90;;;;;;5138084;27;20063;-66
2022/12/10 05:11:07;;;;;;;36.63;18.77;;;-0.30;99.90;;;;;;5102747;27;20055;-66
2022/12/10 05:13:32;;;;;;;44.67;20.40;;;-0.30;99.90;;;;;;5137838;27;20047;-67
2022/12/10 05:16:01;;;;;;;36.47;19.75;;;-0.40;99.90;;;;;;5137743;27;20039;-66
2022/12/10 05:18:26;;;;;;;38.90;20.00;;;-0.10;99.90;;;;;;5119336;27;20139;-66
2022/12/10 05:20:52;;;;;;;37.67;18.63;;;1.10;99.90;;;;;;5138595;27;20047;-66
2022/12/10 05:23:30;;;;;;;36.80;19.02;;;-0.30;99.90;;;;;;5119658;27;20043;-66
2022/12/10 05:25:59;;;;;;;36.75;17.88;;;-0.40;99.90;;;;;;5138128;27;20050;-66
2022/12/10 05:28:26;;;;;;;41.83;19.00;;;-0.40;99.90;;;;;;5138046;27;20463;-66
2022/12/10 05:30:52;;;;;;;42.75;18.98;;;0.90;99.90;;;;;;5119128;27;20047;-67
2022/12/10 05:33:18;;;;;;;45.42;19.02;;;-0.40;99.90;;;;;;5137774;27;20440;-66
2022/12/10 05:35:43;;;;;;;40.40;19.63;;;-0.10;99.90;;;;;;5137341;27;20035;-66
2022/12/10 05:38:10;;;;;;;35.08;17.50;;;-0.60;99.90;;;;;;5137112;27;20078;-66
2022/12/10 05:40:37;;;;;;;41.50;19.88;;;0.40;99.90;;;;;;5137308;27;20104;-66
2022/12/10 05:43:03;;;;;;;42.20;20.73;;;-0.50;99.90;;;;;;5137304;27;20126;-67
2022/12/10 05:45:28;;;;;;;40.00;19.02;;;-0.70;99.90;;;;;;5137289;27;20070;-66
2022/12/10 05:47:54;;;;;;;40.03;20.25;;;-0.50;99.90;;;;;;5137160;27;20434;-66
2022/12/10 05:50:20;;;;;;;41.05;20.25;;;-0.50;99.90;;;;;;5137119;27;20051;-66
2022/12/10 05:52:45;;;;;;;40.33;20.27;;;0.40;99.90;;;;;;5137622;27;20046;-67
2022/12/10 05:55:11;;;;;;;40.25;19.13;;;-0.50;99.90;;;;;;5137054;27;20039;-67
2022/12/10 05:57:37;;;;;;;40.85;19.30;;;-0.30;99.90;;;;;;5137540;27;20066;-67
2022/12/10 06:00:05;;;;;;;38.70;20.20;;;-0.70;99.90;;;;;;5136593;27;20398;-67
2022/12/10 06:02:33;;;;;;;38.42;18.83;;;-0.60;99.90;;;;;;5137137;27;20069;-67
2022/12/10 06:04:59;;;;;;;43.13;19.15;;;-0.60;99.90;;;;;;5136890;27;20039;-66
2022/12/10 06:07:25;;;;;;;43.85;20.98;;;-0.10;99.90;;;;;;5118327;27;20039;-67
2022/12/10 06:09:51;;;;;;;39.47;18.98;;;0.20;99.90;;;;;;5136675;27;20084;-67
2022/12/10 06:12:16;;;;;;;44.45;21.65;;;0.10;99.90;;;;;;5137200;27;20058;-67
2022/12/10 06:14:42;;;;;;;44.10;20.70;;;0.10;99.90;;;;;;5136666;27;20440;-67
2022/12/10 06:17:08;;;;;;;41.45;19.67;;;-0.60;99.90;;;;;;5136531;27;20035;-67
2022/12/10 06:19:34;;;;;;;39.90;20.13;;;-0.10;99.90;;;;;;5136618;27;20049;-67
2022/12/10 06:22:00;;;;;;;41.00;19.45;;;-0.80;99.90;;;;;;5118650;27;20047;-67
2022/12/10 06:24:25;;;;;;;41.15;19.85;;;-0.80;99.90;;;;;;5136905;27;20045;-67
2022/12/10 06:26:51;;;;;;;47.25;21.33;;;-0.20;99.90;;;;;;5118598;27;20412;-67
2022/12/10 06:29:17;;;;;;;41.33;20.45;;;-0.40;99.90;;;;;;5136725;27;20086;-67
2022/12/10 06:31:43;;;;;;;39.80;18.48;;;-0.90;99.90;;;;;;5136347;27;20047;-67
2022/12/10 06:34:09;;;;;;;42.25;20.15;;;-0.60;99.90;;;;;;5136556;27;20046;-67
2022/12/10 06:36:35;;;;;;;42.63;21.88;;;-1.00;99.90;;;;;;5118210;27;20035;-67
2022/12/10 06:39:02;;;;;;;42.58;20.40;;;0.30;99.90;;;;;;5136099;27;20455;-67
2022/12/10 06:41:27;;;;;;;40.53;20.52;;;-0.10;99.90;;;;;;5136156;27;20047;-67
2022/12/10 06:43:53;;;;;;;41.83;20.45;;;-0.70;99.90;;;;;;5136115;27;20502;-67
2022/12/10 06:46:20;;;;;;;44.60;20.63;;;-0.70;99.90;;;;;;5117994;27;20042;-67
2022/12/10 06:48:47;;;;;;;39.38;19.90;;;-0.80;99.90;;;;;;5136843;27;20074;-67
2022/12/10 06:51:13;;;;;;;45.90;22.35;;;-0.90;99.90;;;;;;5135222;27;20065;-67
2022/12/10 06:53:40;;;;;;;42.67;19.85;;;0.00;99.90;;;;;;5135926;27;20166;-67
2022/12/10 06:56:07;;;;;;;43.50;21.88;;;-1.00;99.90;;;;;;5136075;27;20442;-66
2022/12/10 06:58:34;;;;;;;42.08;20.48;;;-0.90;99.90;;;;;;5135804;27;20088;-67
2022/12/10 07:01:20;;;;;;;46.10;21.55;;;-0.50;99.90;;;;;;5135348;27;20086;-67
2022/12/10 07:03:50;;;;;;;47.67;22.23;;;-0.90;99.90;;;;;;5136070;27;20046;-67
2022/12/10 07:06:16;;;;;;;43.33;23.33;;;0.50;99.90;;;;;;5135534;27;20036;-67
2022/12/10 07:08:42;;;;;;;45.42;22.40;;;0.20;99.90;;;;;;5135615;27;20118;-67
2022/12/10 07:11:11;;;;;;;38.03;20.90;;;-0.60;99.90;;;;;;5135797;27;20122;-67
2022/12/10 07:13:38;;;;;;;41.28;20.80;;;-0.90;99.90;;;;;;5135587;27;20152;-67
2022/12/10 07:16:11;;;;;;;45.60;21.88;;;-0.60;99.90;;;;;;5135626;27;20513;-67
2022/12/10 07:18:37;;;;;;;;;;;-0.60;99.90;;;;;;5135929;27;20043;-67
2022/12/10 07:21:16;;;;;;;48.42;24.20;;;-1.00;99.90;;;;;;5135348;27;19920;-67
2022/12/10 07:23:42;;;;;;;52.75;22.45;;;-1.00;99.90;;;;;;5135376;27;20039;-67
2022/12/10 07:26:08;;;;;;;46.05;21.45;;;0.20;99.90;;;;;;5135244;27;20050;-67
2022/12/10 07:28:34;;;;;;;44.28;22.77;;;-0.80;99.90;;;;;;5135227;27;20095;-67
2022/12/10 07:31:04;;;;;;;44.28;20.38;;;-0.20;99.90;;;;;;5135190;27;20202;-67
2022/12/10 07:33:29;;;;;;;43.28;21.48;;;-0.60;99.90;;;;;;5134986;27;20165;-67
2022/12/10 07:35:56;;;;;;;47.50;22.83;;;-0.80;99.90;;;;;;5117129;27;20085;-67
2022/12/10 07:38:23;;;;;;;45.05;21.85;;;-0.80;99.90;;;;;;5135133;27;20502;-66
2022/12/10 07:40:49;;;;;;;43.20;21.30;;;-0.20;99.90;;;;;;5100406;27;20043;-67
2022/12/10 07:43:15;;;;;;;47.75;22.75;;;-1.00;99.90;;;;;;5117736;27;20046;-67
2022/12/10 07:45:41;;;;;;;45.63;21.85;;;-1.00;99.90;;;;;;5116707;27;20367;-67
2022/12/10 07:48:06;;;;;;;45.20;22.23;;;-0.90;99.90;;;;;;5117615;27;20126;-67
2022/12/10 07:50:32;;;;;;;44.38;21.42;;;-1.00;99.90;;;;;;5135617;27;20096;-67
2022/12/10 07:52:58;;;;;;;43.90;20.95;;;-0.80;99.90;;;;;;5134995;27;20035;-67
2022/12/10 07:55:24;;;;;;;43.90;21.13;;;-0.40;99.90;;;;;;5135475;27;20099;-66
2022/12/10 07:57:49;;;;;;;48.83;21.67;;;0.10;99.90;;;;;;5116747;27;20103;-66
2022/12/10 08:00:15;;;;;;;48.28;22.08;;;-1.00;99.90;;;;;;5134862;27;20055;-66
2022/12/10 08:02:41;;;;;;;43.25;21.33;;;-0.60;99.90;;;;;;5116533;27;20047;-66
2022/12/10 08:05:07;;;;;;;47.88;23.13;;;-1.00;99.90;;;;;;5134794;27;20114;-67
2022/12/10 08:07:33;;;;;;;49.20;23.48;;;-1.00;99.90;;;;;;5134661;27;20490;-67
2022/12/10 08:09:59;;;;;;;49.88;23.13;;;-0.50;99.90;;;;;;5116551;27;20039;-66
2022/12/10 08:12:24;;;;;;;44.30;20.88;;;-0.70;99.90;;;;;;5134685;27;20384;-66
2022/12/10 08:14:50;;;;;;;44.33;22.38;;;-0.80;99.90;;;;;;5134689;27;20076;-66
2022/12/10 08:17:16;;;;;;;50.33;23.85;;;-1.00;99.90;;;;;;5116798;27;20162;-67
2022/12/10 08:19:41;;;;;;;50.67;23.50;;;-0.70;99.90;;;;;;5135197;27;20050;-68
2022/12/10 08:22:07;;;;;;;47.38;22.17;;;-0.60;99.90;;;;;;5134889;27;20050;-68
2022/12/10 08:24:33;;;;;;;48.80;22.58;;;-0.30;99.90;;;;;;5116557;28;20359;-68
2022/12/10 08:26:58;;;;;;;49.72;22.83;;;-0.50;99.90;;;;;;5134785;28;20077;-68
2022/12/10 08:29:24;;;;;;;48.65;22.45;;;-1.00;99.90;;;;;;5151693;27;20091;-68
2022/12/10 08:31:50;;;;;;;50.80;22.80;;;-0.70;99.90;;;;;;5116538;28;20047;-68
2022/12/10 08:34:18;;;;;;;51.35;23.25;;;-0.50;99.90;;;;;;5134517;28;20547;-68
2022/12/10 08:36:44;;;;;;;44.05;20.45;;;-1.00;99.90;;;;;;5116120;28;20040;-68
2022/12/10 08:39:10;;;;;;;37.75;19.88;;;0.20;99.90;;;;;;5134422;28;20089;-68
2022/12/10 08:41:36;;;;;;;45.83;21.80;;;-0.20;99.90;;;;;;5116301;28;20477;-68
2022/12/10 08:44:02;;;;;;;44.28;20.98;;;-0.30;99.90;;;;;;5134062;28;20509;-68
2022/12/10 08:46:28;;;;;;;48.67;22.98;;;-0.70;99.90;;;;;;5133867;28;20043;-70
2022/12/10 08:48:54;;;;;;;46.47;21.30;;;-0.70;99.90;;;;;;5099112;28;20036;-70
2022/12/10 08:51:21;;;;;;;45.55;21.33;;;-0.50;99.90;;;;;;5134286;28;20047;-69
2022/12/10 08:53:47;;;;;;;45.95;21.63;;;-0.50;99.90;;;;;;5134285;28;20043;-69
2022/12/10 08:56:13;;;;;;;45.03;22.15;;;-0.90;99.90;;;;;;5116983;28;20094;-69
2022/12/10 08:58:39;;;;;;;47.53;21.17;;;0.00;99.90;;;;;;5099381;28;20050;-69
2022/12/10 09:01:07;;;;;;;43.22;21.60;;;-0.80;99.90;;;;;;5115591;28;20084;-69
2022/12/10 09:03:33;;;;;;;48.13;21.20;;;-0.60;99.90;;;;;;5134174;28;20055;-69
2022/12/10 09:06:05;;;;;;;44.90;19.92;;;-0.80;99.90;;;;;;5134066;28;20039;-69
2022/12/10 09:08:32;;;;;;;44.40;20.67;;;-0.60;99.90;;;;;;5116492;28;20428;-69
2022/12/10 09:10:57;;;;;;;50.63;23.35;;;-0.50;99.90;;;;;;5134133;28;20096;-69
2022/12/10 09:13:23;;;;;;;55.53;24.98;;;-0.40;99.90;;;;;;5134215;27;20051;-69
2022/12/10 09:15:50;;;;;;;48.40;22.83;;;1.30;99.90;;;;;;5137929;27;20054;-66
2022/12/10 09:18:16;;;;;;;44.50;21.17;;;-0.60;99.90;;;;;;5137955;27;20043;-66
2022/12/10 09:20:42;;;;;;;48.80;23.02;;;-0.70;99.90;;;;;;5138026;27;20402;-67
2022/12/10 09:23:07;;;;;;;51.38;22.80;;;-0.70;99.90;;;;;;5119390;27;20047;-67
2022/12/10 09:25:33;;;;;;;48.70;21.60;;;-0.50;99.90;;;;;;5137632;27;20043;-66
2022/12/10 09:27:59;;;;;;;58.75;24.65;;;0.30;99.90;;;;;;5119304;27;20050;-67
2022/12/10 09:30:24;;;;;;;48.65;24.67;;;-0.30;99.90;;;;;;5136775;27;20083;-67
2022/12/10 09:32:50;;;;;;;45.28;22.38;;;-0.20;99.90;;;;;;5136702;27;20062;-66
2022/12/10 09:35:16;;;;;;;44.47;21.70;;;0.00;99.90;;;;;;5137507;27;20043;-66
2022/12/10 09:37:42;;;;;;;43.97;21.42;;;-0.20;99.90;;;;;;5137487;27;20420;-66
2022/12/10 09:40:23;;;;;;;53.80;25.05;;;-0.40;99.90;;;;;;5137413;27;20047;-67
2022/12/10 09:42:57;;;;;;;46.78;23.23;;;-0.30;99.90;;;;;;5120157;27;20054;-66
2022/12/10 09:45:51;;;;;;;50.38;24.23;;;-0.20;99.90;;;;;;5137362;27;20054;-66
2022/12/10 09:48:25;;;;;;;49.63;24.25;;;-0.40;99.90;;;;;;5137602;27;20058;-66
2022/12/10 09:50:59;;;;;;;49.25;23.92;;;-0.10;99.90;;;;;;5138144;27;20043;-66
2022/12/10 09:53:28;;;;;;;51.40;24.38;;;0.50;99.90;;;;;;5137226;27;20047;-66
2022/12/10 09:55:53;;;;;;;47.30;23.48;;;-0.10;99.90;;;;;;5137210;27;20096;-66
2022/12/10 09:58:26;;;;;;;45.22;22.33;;;0.40;99.90;;;;;;5119248;27;20047;-66
2022/12/10 10:00:58;;;;;;;48.13;22.42;;;0.10;99.90;;;;;;5137322;27;20077;-66
2022/12/10 10:03:23;;;;;;;44.20;21.88;;;-0.30;99.90;;;;;;5137717;27;20043;-66
2022/12/10 10:05:51;;;;;;;47.83;22.55;;;0.40;99.90;;;;;;5136669;27;20379;-66
2022/12/10 10:08:48;;;;;;;46.22;21.45;;;0.10;99.90;;;;;;5118934;27;20074;-66
2022/12/10 10:11:21;;;;;;;46.47;22.00;;;0.20;99.90;;;;;;5119924;27;20059;-66
2022/12/10 10:13:54;;;;;;;40.50;20.52;;;0.10;99.90;;;;;;5119182;27;20043;-66
2022/12/10 10:16:20;;;;;;;43.20;20.15;;;0.30;99.90;;;;;;5119205;27;20058;-66
2022/12/10 10:18:58;;;;;;;42.78;19.90;;;0.40;99.90;;;;;;5136848;27;20047;-66
2022/12/10 10:21:28;;;;;;;43.95;22.05;;;0.20;99.90;;;;;;5136855;27;20055;-65
2022/12/10 10:23:55;;;;;;;47.95;21.90;;;0.10;99.90;;;;;;5136686;27;20096;-66
2022/12/10 10:26:22;;;;;;;45.72;20.75;;;0.30;99.90;;;;;;5116876;27;20054;-66
2022/12/10 10:28:51;;;;;;;44.67;19.55;;;0.00;99.90;;;;;;5118263;27;20093;-66
2022/12/10 10:31:23;;;;;;;46.35;21.23;;;0.20;99.90;;;;;;5118770;27;20039;-66
2022/12/10 10:33:56;;;;;;;44.63;20.77;;;0.20;99.90;;;;;;5136543;27;20431;-66
2022/12/10 10:36:37;;;;;;;42.08;20.05;;;1.20;99.90;;;;;;5119163;27;20412;-66
2022/12/10 10:39:09;;;;;;;49.42;21.98;;;0.30;99.90;;;;;;5136494;27;20180;-66
2022/12/10 10:41:42;;;;;;;46.47;21.85;;;0.30;99.90;;;;;;5136402;27;20094;-66
2022/12/10 10:44:18;;;;;;;47.78;21.17;;;0.10;99.90;;;;;;5137166;27;20043;-66
2022/12/10 10:46:46;;;;;;;46.35;21.92;;;0.70;99.90;;;;;;5136217;27;20046;-66
2022/12/10 10:49:27;;;;;;;44.17;20.80;;;0.30;99.90;;;;;;5118119;27;20437;-66
2022/12/10 10:52:13;;;;;;;42.33;20.92;;;0.60;99.90;;;;;;5136198;27;20130;-66
2022/12/10 10:54:41;;;;;;;45.97;22.25;;;0.30;99.90;;;;;;5118655;27;20147;-66
2022/12/10 10:57:31;;;;;;;46.13;21.75;;;0.50;99.90;;;;;;5136140;27;20047;-66
2022/12/10 11:00:16;;;;;;;48.78;21.92;;;1.50;99.90;;;;;;5135723;27;20058;-66
2022/12/10 11:02:41;;;;;;;46.50;21.20;;;0.90;99.90;;;;;;5135965;27;20479;-66
2022/12/10 11:05:17;;;;;;;49.65;25.00;;;0.60;99.90;;;;;;5117680;27;20050;-66
2022/12/10 11:07:43;;;;;;;60.53;25.65;;;0.30;99.90;;;;;;5117542;27;20047;-66
2022/12/10 11:10:21;;;;;;;54.83;25.98;;;0.50;99.90;;;;;;5135840;27;20043;-66
2022/12/10 11:12:56;;;;;;;54.78;26.75;;;0.30;99.90;;;;;;5136424;27;20108;-66
2022/12/10 11:15:22;;;;;;;52.38;26.63;;;1.30;99.90;;;;;;5136543;27;20157;-67
2022/12/10 11:17:53;;;;;;;48.70;24.33;;;0.40;99.90;;;;;;5135674;27;20074;-67
2022/12/10 11:20:24;;;;;;;48.22;23.40;;;0.70;99.90;;;;;;5136020;27;20445;-66
2022/12/10 11:23:01;;;;;;;47.38;23.15;;;0.70;99.90;;;;;;5135647;27;20057;-66
2022/12/10 11:26:05;;;;;;;48.95;22.02;;;0.80;99.90;;;;;;5135898;27;20490;-66
2022/12/10 11:28:55;;;;;;;46.47;22.88;;;0.80;99.90;;;;;;5089450;27;20059;-66
2022/12/10 11:32:01;;;;;;;46.72;21.98;;;0.50;99.90;;;;;;5136091;27;20062;-66
2022/12/10 11:34:58;;;;;;;43.30;21.55;;;0.80;99.90;;;;;;5095303;27;20108;-66
2022/12/10 11:37:37;;;;;;;41.38;21.75;;;0.80;99.90;;;;;;5117858;27;20083;-66
2022/12/10 11:40:18;;;;;;;45.63;21.92;;;0.90;99.90;;;;;;5135344;27;20099;-66
2022/12/10 11:43:10;;;;;;;42.13;21.38;;;1.20;99.90;;;;;;5135272;27;20047;-67
2022/12/10 11:46:20;;;;;;;48.33;23.17;;;0.80;99.90;;;;;;5123767;27;20054;-67
2022/12/10 11:49:09;;;;;;;44.47;22.40;;;0.80;99.90;;;;;;5113542;27;20047;-67
2022/12/10 11:52:13;;;;;;;51.47;23.85;;;0.90;99.90;;;;;;5096332;27;20047;-67
2022/12/10 11:54:47;;;;;;;45.40;22.85;;;1.20;99.90;;;;;;5110396;27;20119;-67
2022/12/10 11:57:21;;;;;;;48.47;23.42;;;0.90;99.90;;;;;;5135181;27;20062;-66
2022/12/10 12:00:04;;;;;;;47.38;22.83;;;1.40;99.90;;;;;;5135587;27;20351;-67
2022/12/10 12:02:44;;;;;;;52.85;23.33;;;1.10;99.90;;;;;;5135592;27;20151;-67
2022/12/10 12:05:31;;;;;;;47.45;22.65;;;1.00;99.90;;;;;;5135603;27;20424;-67
2022/12/10 12:08:30;;;;;;;43.50;22.13;;;0.90;99.90;;;;;;5135191;27;20047;-67
2022/12/10 12:11:08;;;;;;;47.28;23.33;;;1.10;99.90;;;;;;5133568;27;20050;-67
2022/12/10 12:13:55;;;;;;;47.05;21.05;;;1.60;99.90;;;;;;5135456;27;20065;-66
2022/12/10 12:16:40;;;;;;;45.90;21.23;;;0.70;99.90;;;;;;5134782;27;20431;-67
2022/12/10 12:19:14;;;;;;;45.33;22.92;;;0.80;99.90;;;;;;5134844;27;20039;-67
2022/12/10 12:21:40;;;;;;;49.03;22.27;;;0.60;99.90;;;;;;5134770;27;20046;-66
2022/12/10 12:24:20;;;;;;;45.70;22.50;;;1.30;99.90;;;;;;5135026;27;20043;-67
2022/12/10 12:26:56;;;;;;;48.53;23.13;;;1.40;99.90;;;;;;5134960;28;20532;-66
2022/12/10 12:29:54;;;;;;;43.40;21.83;;;1.40;99.90;;;;;;5134770;28;20478;-66
2022/12/10 12:32:30;;;;;;;47.90;22.15;;;0.90;99.90;;;;;;5116206;28;20054;-67
2022/12/10 12:35:10;;;;;;;49.45;22.17;;;0.70;99.90;;;;;;5134662;28;20047;-67
2022/12/10 12:37:42;;;;;;;48.13;21.10;;;0.90;99.90;;;;;;5135145;28;20046;-67
2022/12/10 12:40:27;;;;;;;50.08;22.83;;;1.10;99.90;;;;;;5116579;28;20413;-67
2022/12/10 12:43:03;;;;;;;47.78;22.52;;;1.00;99.90;;;;;;5134547;28;20559;-67
2022/12/10 12:45:42;;;;;;;52.92;22.98;;;2.30;99.90;;;;;;5135240;28;20370;-67
2022/12/10 12:48:28;;;;;;;52.10;23.23;;;0.90;99.90;;;;;;5134799;27;20543;-67
2022/12/10 12:51:12;;;;;;;49.55;25.05;;;0.90;99.90;;;;;;5138999;27;20106;-66
2022/12/10 12:53:38;;;;;;;47.45;22.75;;;1.10;99.90;;;;;;5139196;27;20043;-67
2022/12/10 12:56:07;;;;;;;49.83;23.92;;;1.50;99.90;;;;;;5120813;27;20472;-67
2022/12/10 12:58:45;;;;;;;46.92;23.13;;;0.90;99.90;;;;;;5120977;27;20090;-67